createdAt,value
2016-05-25T00:00:08.047Z,11.71
2016-05-25T00:01:05.191Z,11.71
2016-05-25T00:02:04.958Z,11.73
2016-05-25T00:03:05.243Z,11.68
2016-05-25T00:04:05.011Z,11.77
2016-05-25T00:05:04.936Z,11.7
2016-05-25T00:06:08.127Z,11.59
2016-05-25T00:07:05.050Z,11.58
2016-05-25T00:08:04.803Z,11.68
2016-05-25T00:09:04.963Z,11.58
2016-05-25T00:10:04.699Z,11.58
2016-05-25T00:11:04.640Z,11.59
2016-05-25T00:12:04.610Z,11.7
2016-05-25T00:13:07.535Z,11.73
2016-05-25T00:14:07.491Z,11.68
2016-05-25T00:15:07.853Z,11.68
2016-05-25T00:16:04.279Z,11.7
2016-05-25T00:17:07.749Z,11.63
2016-05-25T00:18:04.284Z,11.62
2016-05-25T00:19:04.067Z,11.74
2016-05-25T00:20:10.195Z,11.73
2016-05-25T00:21:04.135Z,11.7
2016-05-25T00:22:04.137Z,11.68
2016-05-25T00:23:07.234Z,11.63
2016-05-25T00:24:06.846Z,11.68
2016-05-25T00:25:06.943Z,11.67
2016-05-25T00:26:03.883Z,11.78
2016-05-25T00:27:03.839Z,11.76
2016-05-25T00:28:06.811Z,11.77
2016-05-25T00:29:06.939Z,11.77
2016-05-25T00:30:09.909Z,11.77
2016-05-25T00:31:03.881Z,11.85
2016-05-25T00:32:06.289Z,11.78
2016-05-25T00:33:09.386Z,11.71
2016-05-25T00:34:06.498Z,11.78
2016-05-25T00:35:06.516Z,11.74
2016-05-25T00:36:06.613Z,11.7
2016-05-25T00:37:03.334Z,11.68
2016-05-25T00:38:03.119Z,11.73
2016-05-25T00:39:03.247Z,11.65
2016-05-25T00:40:06.155Z,11.62
2016-05-25T00:41:03.111Z,11.65
2016-05-25T00:42:03.051Z,11.68
2016-05-25T00:43:06.022Z,11.73
2016-05-25T00:44:02.962Z,11.74
2016-05-25T00:45:03.606Z,11.7
2016-05-25T00:46:06.077Z,11.68
2016-05-25T00:47:06.346Z,11.74
2016-05-25T00:48:05.786Z,11.7
2016-05-25T00:49:05.570Z,11.68
2016-05-25T00:50:05.666Z,11.68
2016-05-25T00:51:02.809Z,11.76
2016-05-25T00:52:05.593Z,11.76
2016-05-25T00:53:02.518Z,11.73
2016-05-25T00:54:02.473Z,11.76
2016-05-25T00:55:05.430Z,11.78
2016-05-25T00:56:05.370Z,11.78
2016-05-25T00:57:05.341Z,11.74
2016-05-25T00:58:05.469Z,11.77
2016-05-25T00:59:02.206Z,11.74
2016-05-25T01:00:02.162Z,11.71
2016-05-25T01:01:02.117Z,11.74
2016-05-25T01:02:05.620Z,11.8
2016-05-25T01:03:02.030Z,11.81
2016-05-25T01:04:04.953Z,11.86
2016-05-25T01:05:05.128Z,11.89
2016-05-25T01:06:02.068Z,11.96
2016-05-25T01:07:07.821Z,11.97
2016-05-25T01:08:04.777Z,11.89
2016-05-25T01:09:01.702Z,11.91
2016-05-25T01:10:04.502Z,11.89
2016-05-25T01:11:04.832Z,11.97
2016-05-25T01:12:07.569Z,11.91
2016-05-25T01:13:07.571Z,12.1
2016-05-25T01:14:04.855Z,12.03
2016-05-25T01:15:04.608Z,11.95
2016-05-25T01:16:01.360Z,11.93
2016-05-25T01:17:07.317Z,11.96
2016-05-25T01:18:04.304Z,11.93
2016-05-25T01:19:04.416Z,11.91
2016-05-25T01:20:04.168Z,11.86
2016-05-25T01:21:03.953Z,11.91
2016-05-25T01:22:07.065Z,11.86
2016-05-25T01:23:04.036Z,11.85
2016-05-25T01:24:03.789Z,11.89
2016-05-25T01:25:00.964Z,11.83
2016-05-25T01:26:03.856Z,11.83
2016-05-25T01:27:01.001Z,11.8
2016-05-25T01:28:07.175Z,11.81
2016-05-25T01:29:00.693Z,11.76
2016-05-25T01:30:03.648Z,11.71
2016-05-25T01:31:00.495Z,11.73
2016-05-25T01:32:03.764Z,11.7
2016-05-25T01:33:06.531Z,11.77
2016-05-25T01:34:00.453Z,11.88
2016-05-25T01:35:00.897Z,11.8
2016-05-25T01:36:03.352Z,11.81
2016-05-25T01:37:06.324Z,11.77
2016-05-25T01:38:00.246Z,11.74
2016-05-25T01:39:00.294Z,11.78
2016-05-25T01:40:00.126Z,11.78
2016-05-25T01:41:03.100Z,11.76
2016-05-25T01:42:03.103Z,11.74
2016-05-25T01:43:00.181Z,11.73
2016-05-25T01:43:59.949Z,11.8
2016-05-25T01:44:59.874Z,11.74
2016-05-25T01:46:02.754Z,11.77
2016-05-25T01:47:02.804Z,11.78
2016-05-25T01:48:03.166Z,11.85
2016-05-25T01:48:59.697Z,11.88
2016-05-25T01:50:02.687Z,11.83
2016-05-25T01:50:59.577Z,11.86
2016-05-25T01:51:59.548Z,11.88
2016-05-25T01:52:59.333Z,11.91
2016-05-25T01:53:59.476Z,11.95
2016-05-25T01:54:59.229Z,11.85
2016-05-25T01:56:02.562Z,11.78
2016-05-25T01:56:59.297Z,11.73
2016-05-25T01:58:05.223Z,11.74
2016-05-25T01:58:59.192Z,11.76
2016-05-25T01:59:59.133Z,11.63
2016-05-25T02:00:59.276Z,11.63
2016-05-25T02:02:05.064Z,11.59
2016-05-25T02:03:01.987Z,11.56
2016-05-25T02:03:58.784Z,11.59
2016-05-25T02:05:01.914Z,11.65
2016-05-25T02:06:01.839Z,11.73
2016-05-25T02:06:58.980Z,11.68
2016-05-25T02:08:01.938Z,11.68
2016-05-25T02:09:01.722Z,11.62
2016-05-25T02:10:04.663Z,11.68
2016-05-25T02:11:01.666Z,11.7
2016-05-25T02:11:58.541Z,11.71
2016-05-25T02:12:58.684Z,11.74
2016-05-25T02:14:01.452Z,11.73
2016-05-25T02:15:01.408Z,11.65
2016-05-25T02:15:58.535Z,11.71
2016-05-25T02:17:01.569Z,11.73
2016-05-25T02:17:58.228Z,11.77
2016-05-25T02:19:01.215Z,11.74
2016-05-25T02:19:58.140Z,11.71
2016-05-25T02:20:57.971Z,11.76
2016-05-25T02:22:00.864Z,11.81
2016-05-25T02:23:00.960Z,11.74
2016-05-25T02:23:57.916Z,11.76
2016-05-25T02:25:00.873Z,11.65
2016-05-25T02:25:57.890Z,11.67
2016-05-25T02:27:00.768Z,11.76
2016-05-25T02:28:03.742Z,11.76
2016-05-25T02:28:57.679Z,11.8
2016-05-25T02:29:57.619Z,11.86
2016-05-25T02:31:00.575Z,11.86
2016-05-25T02:31:57.531Z,11.85
2016-05-25T02:32:57.956Z,11.81
2016-05-25T02:33:57.412Z,11.81
2016-05-25T02:35:00.384Z,11.73
2016-05-25T02:36:00.323Z,11.71
2016-05-25T02:37:00.514Z,11.77
2016-05-25T02:37:57.203Z,11.77
2016-05-25T02:38:57.175Z,11.76
2016-05-25T02:39:57.130Z,11.76
2016-05-25T02:40:57.150Z,11.76
2016-05-25T02:41:57.011Z,11.78
2016-05-25T02:42:59.967Z,11.77
2016-05-25T02:44:00.095Z,11.74
2016-05-25T02:45:07.304Z,11.8
2016-05-25T02:45:56.835Z,11.78
2016-05-25T02:46:56.807Z,11.81
2016-05-25T02:47:59.777Z,11.88
2016-05-25T02:48:56.671Z,11.99
2016-05-25T02:49:56.610Z,11.95
2016-05-25T02:50:56.567Z,11.96
2016-05-25T02:51:56.524Z,11.93
2016-05-25T02:52:56.681Z,11.89
2016-05-25T02:53:59.747Z,11.93
2016-05-25T02:54:59.359Z,11.81
2016-05-25T02:55:56.346Z,11.78
2016-05-25T02:56:59.271Z,11.73
2016-05-25T02:57:59.070Z,11.77
2016-05-25T02:58:59.464Z,11.73
2016-05-25T02:59:59.122Z,11.77
2016-05-25T03:01:02.062Z,11.67
2016-05-25T03:01:57.159Z,11.7
2016-05-25T03:02:59.053Z,11.74
2016-05-25T03:04:05.105Z,11.67
2016-05-25T03:04:58.839Z,11.73
2016-05-25T03:05:55.794Z,11.71
2016-05-25T03:06:59.157Z,11.78
2016-05-25T03:07:55.691Z,11.76
2016-05-25T03:08:55.647Z,11.76
2016-05-25T03:09:58.618Z,11.77
2016-05-25T03:10:55.542Z,11.81
2016-05-25T03:12:01.513Z,11.85
2016-05-25T03:13:01.314Z,11.91
2016-05-25T03:14:01.410Z,11.96
2016-05-25T03:14:55.350Z,11.97
2016-05-25T03:15:58.509Z,11.91
2016-05-25T03:16:55.121Z,11.97
2016-05-25T03:17:55.186Z,11.93
2016-05-25T03:18:58.408Z,11.86
2016-05-25T03:19:58.098Z,11.81
2016-05-25T03:20:55.460Z,11.8
2016-05-25T03:21:54.838Z,11.78
2016-05-25T03:22:58.154Z,11.74
2016-05-25T03:23:54.890Z,11.77
2016-05-25T03:24:57.909Z,11.76
2016-05-25T03:25:54.802Z,11.83
2016-05-25T03:26:54.790Z,11.88
2016-05-25T03:27:54.604Z,11.85
2016-05-25T03:28:54.326Z,11.74
2016-05-25T03:29:54.593Z,11.74
2016-05-25T03:30:57.550Z,11.74
2016-05-25T03:31:54.553Z,11.71
2016-05-25T03:32:54.648Z,11.7
2016-05-25T03:34:03.620Z,11.65
2016-05-25T03:34:54.326Z,11.65
2016-05-25T03:36:00.516Z,11.58
2016-05-25T03:36:57.253Z,11.6
2016-05-25T03:37:57.194Z,11.7
2016-05-25T03:39:00.164Z,11.63
2016-05-25T03:39:57.105Z,11.68
2016-05-25T03:40:54.045Z,11.68
2016-05-25T03:41:54.204Z,11.73
2016-05-25T03:43:28.335Z,11.78
2016-05-25T03:43:53.881Z,11.88
2016-05-25T03:44:53.680Z,11.85
2016-05-25T03:45:59.996Z,11.85
2016-05-25T03:46:53.733Z,11.85
2016-05-25T03:47:59.892Z,11.89
2016-05-25T03:48:54.036Z,11.83
2016-05-25T03:49:59.616Z,11.86
2016-05-25T03:50:56.572Z,11.96
2016-05-25T03:51:53.512Z,11.97
2016-05-25T03:52:53.437Z,11.96
2016-05-25T03:53:56.252Z,12.03
2016-05-25T03:54:53.332Z,11.95
2016-05-25T03:55:56.477Z,12.05
2016-05-25T03:56:53.229Z,11.99
2016-05-25T03:57:53.185Z,12.05
2016-05-25T03:58:52.969Z,11.96
2016-05-25T03:59:53.160Z,11.96
2016-05-25T04:00:53.318Z,12.03
2016-05-25T04:01:55.992Z,12.1
2016-05-25T04:02:55.933Z,12.08
2016-05-25T04:03:52.889Z,12.03
2016-05-25T04:04:52.829Z,12.15
2016-05-25T04:05:52.770Z,12.14
2016-05-25T04:06:52.928Z,12.1
2016-05-25T04:07:55.695Z,12.02
2016-05-25T04:08:52.621Z,12.1
2016-05-25T04:09:52.576Z,12.11
2016-05-25T04:10:55.533Z,12.07
2016-05-25T04:11:52.488Z,12.08
2016-05-25T04:12:55.288Z,12.11
2016-05-25T04:13:52.369Z,12.05
2016-05-25T04:14:52.340Z,11.93
2016-05-25T04:15:55.499Z,12.03
2016-05-25T04:16:58.080Z,11.89
2016-05-25T04:17:55.191Z,11.86
2016-05-25T04:18:52.116Z,11.86
2016-05-25T04:19:52.111Z,11.89
2016-05-25T04:20:52.075Z,11.93
2016-05-25T04:21:58.258Z,11.78
2016-05-25T04:22:58.050Z,11.83
2016-05-25T04:23:55.201Z,11.93
2016-05-25T04:24:55.040Z,11.88
2016-05-25T04:25:54.927Z,11.86
2016-05-25T04:26:54.720Z,11.77
2016-05-25T04:27:54.668Z,11.77
2016-05-25T04:28:54.976Z,11.81
2016-05-25T04:29:51.935Z,11.91
2016-05-25T04:30:51.535Z,11.89
2016-05-25T04:31:55.041Z,11.86
2016-05-25T04:32:54.608Z,11.93
2016-05-25T04:33:57.552Z,11.86
2016-05-25T04:34:51.509Z,11.86
2016-05-25T04:35:51.293Z,11.86
2016-05-25T04:36:54.408Z,11.85
2016-05-25T04:37:54.411Z,11.86
2016-05-25T04:38:54.322Z,11.93
2016-05-25T04:39:54.278Z,11.96
2016-05-25T04:40:57.264Z,11.89
2016-05-25T04:41:54.190Z,11.88
2016-05-25T04:42:51.115Z,11.91
2016-05-25T04:43:51.055Z,11.93
2016-05-25T04:44:50.871Z,11.86
2016-05-25T04:45:50.967Z,12.03
2016-05-25T04:46:50.954Z,11.96
2016-05-25T04:47:50.863Z,11.96
2016-05-25T04:48:50.803Z,11.91
2016-05-25T04:49:50.775Z,11.95
2016-05-25T04:50:56.731Z,11.89
2016-05-25T04:51:50.655Z,11.96
2016-05-25T04:52:50.626Z,12.07
2016-05-25T04:53:53.566Z,12.1
2016-05-25T04:54:50.507Z,12.03
2016-05-25T04:55:53.463Z,12.11
2016-05-25T04:56:50.605Z,12.17
2016-05-25T04:57:50.546Z,12.05
2016-05-25T04:58:50.517Z,12.03
2016-05-25T04:59:53.239Z,12.03
2016-05-25T05:00:50.195Z,12.12
2016-05-25T05:01:50.213Z,12.15
2016-05-25T05:02:50.107Z,12.1
2016-05-25T05:03:50.063Z,12.02
2016-05-25T05:04:49.940Z,12.07
2016-05-25T05:05:49.974Z,12.08
2016-05-25T05:06:49.913Z,11.95
2016-05-25T05:07:53.057Z,12
2016-05-25T05:08:52.654Z,12.1
2016-05-25T05:09:49.765Z,12.05
2016-05-25T05:10:52.706Z,12.12
2016-05-25T05:11:50.459Z,12.17
2016-05-25T05:12:52.462Z,12.12
2016-05-25T05:13:49.557Z,12.17
2016-05-25T05:15:12.735Z,12.15
2016-05-25T05:15:49.470Z,12.17
2016-05-25T05:16:52.285Z,12.11
2016-05-25T05:17:55.365Z,12.12
2016-05-25T05:18:55.150Z,12.11
2016-05-25T05:19:55.277Z,12.2
2016-05-25T05:20:52.421Z,12.23
2016-05-25T05:21:49.173Z,12.25
2016-05-25T05:22:52.145Z,12.28
2016-05-25T05:23:52.100Z,12.39
2016-05-25T05:24:52.025Z,12.39
2016-05-25T05:25:48.965Z,12.4
2016-05-25T05:26:48.750Z,12.53
2016-05-25T05:27:48.845Z,12.44
2016-05-25T05:28:54.661Z,12.47
2016-05-25T05:29:51.960Z,12.45
2016-05-25T05:30:54.713Z,12.48
2016-05-25T05:31:51.591Z,12.47
2016-05-25T05:32:48.594Z,12.43
2016-05-25T05:33:51.549Z,12.43
2016-05-25T05:34:51.521Z,12.45
2016-05-25T05:35:48.289Z,12.45
2016-05-25T05:36:48.417Z,12.45
2016-05-25T05:37:51.451Z,12.51
2016-05-25T05:38:51.313Z,12.53
2016-05-25T05:39:51.268Z,12.51
2016-05-25T05:40:57.443Z,12.5
2016-05-25T05:41:54.258Z,12.4
2016-05-25T05:42:47.948Z,12.43
2016-05-25T05:43:50.904Z,12.39
2016-05-25T05:44:50.859Z,12.36
2016-05-25T05:45:50.957Z,12.39
2016-05-25T05:46:48.834Z,12.4
2016-05-25T05:47:50.868Z,12.39
2016-05-25T05:48:47.824Z,12.43
2016-05-25T05:49:50.764Z,12.48
2016-05-25T05:50:47.751Z,12.39
2016-05-25T05:51:47.676Z,12.45
2016-05-25T05:52:47.537Z,12.45
2016-05-25T05:53:47.556Z,12.44
2016-05-25T05:54:47.589Z,12.47
2016-05-25T05:55:50.468Z,12.47
2016-05-25T05:56:50.330Z,12.36
2016-05-25T05:57:50.583Z,12.29
2016-05-25T05:58:47.445Z,12.32
2016-05-25T05:59:47.291Z,12.23
2016-05-25T06:00:50.263Z,12.21
2016-05-25T06:01:53.015Z,12.28
2016-05-25T06:02:52.955Z,12.23
2016-05-25T06:03:47.052Z,12.26
2016-05-25T06:04:50.023Z,12.29
2016-05-25T06:05:49.963Z,12.23
2016-05-25T06:06:50.013Z,12.21
2016-05-25T06:07:46.937Z,12.08
2016-05-25T06:08:46.800Z,12.08
2016-05-25T06:09:49.802Z,11.99
2016-05-25T06:10:46.571Z,12.07
2016-05-25T06:11:49.699Z,12.12
2016-05-25T06:12:46.607Z,12.18
2016-05-25T06:13:46.563Z,12.32
2016-05-25T06:14:46.706Z,12.37
2016-05-25T06:15:46.459Z,12.48
2016-05-25T06:16:49.415Z,12.51
2016-05-25T06:17:46.354Z,12.51
2016-05-25T06:18:49.562Z,12.54
2016-05-25T06:19:49.298Z,12.53
2016-05-25T06:20:49.269Z,12.45
2016-05-25T06:21:46.382Z,12.44
2016-05-25T06:22:50.759Z,12.39
2016-05-25T06:23:51.153Z,12.54
2016-05-25T06:24:46.093Z,12.61
2016-05-25T06:25:46.080Z,12.73
2016-05-25T06:26:46.083Z,12.78
2016-05-25T06:27:45.991Z,12.93
2016-05-25T06:28:51.931Z,13.01
2016-05-25T06:29:46.121Z,13.05
2016-05-25T06:30:48.968Z,13.01
2016-05-25T06:31:49.392Z,12.98
2016-05-25T06:32:49.208Z,12.84
2016-05-25T06:33:48.492Z,12.75
2016-05-25T06:34:45.511Z,12.73
2016-05-25T06:35:45.466Z,12.87
2016-05-25T06:36:45.422Z,13.02
2016-05-25T06:37:49.972Z,13.09
2016-05-25T06:38:48.161Z,13.21
2016-05-25T06:39:48.118Z,13.24
2016-05-25T06:40:45.401Z,13.21
2016-05-25T06:41:45.170Z,13.2
2016-05-25T06:42:47.844Z,13.21
2016-05-25T06:43:46.379Z,13.17
2016-05-25T06:44:45.037Z,13.21
2016-05-25T06:45:45.212Z,13.23
2016-05-25T06:46:44.604Z,13.27
2016-05-25T06:47:50.217Z,13.33
2016-05-25T06:48:44.829Z,13.33
2016-05-25T06:49:47.831Z,13.26
2016-05-25T06:50:44.851Z,13.45
2016-05-25T06:51:50.728Z,13.33
2016-05-25T06:52:48.667Z,13.36
2016-05-25T06:53:44.781Z,13.36
2016-05-25T06:54:50.533Z,13.27
2016-05-25T06:55:47.489Z,13.24
2016-05-25T06:56:47.289Z,13.3
2016-05-25T06:57:47.384Z,13.27
2016-05-25T06:58:46.028Z,13.43
2016-05-25T06:59:50.530Z,13.42
2016-05-25T07:00:44.470Z,13.52
2016-05-25T07:01:56.817Z,13.6
2016-05-25T07:02:44.195Z,13.64
2016-05-25T07:03:44.307Z,13.65
2016-05-25T07:04:44.247Z,13.7
2016-05-25T07:05:44.109Z,13.75
2016-05-25T07:06:46.955Z,13.8
2016-05-25T07:07:50.036Z,13.93
2016-05-25T07:08:46.914Z,13.91
2016-05-25T07:09:46.885Z,13.91
2016-05-25T07:10:43.794Z,13.85
2016-05-25T07:11:46.735Z,13.89
2016-05-25T07:12:45.065Z,13.93
2016-05-25T07:13:49.646Z,13.91
2016-05-25T07:14:43.571Z,13.83
2016-05-25T07:15:43.745Z,13.86
2016-05-25T07:16:46.467Z,13.76
2016-05-25T07:17:46.438Z,13.87
2016-05-25T07:18:46.348Z,13.76
2016-05-25T07:19:46.365Z,13.71
2016-05-25T07:20:49.290Z,13.73
2016-05-25T07:21:43.402Z,13.7
2016-05-25T07:22:43.374Z,13.71
2016-05-25T07:23:49.001Z,13.68
2016-05-25T07:24:46.317Z,13.76
2016-05-25T07:25:43.241Z,13.75
2016-05-25T07:26:42.853Z,13.82
2016-05-25T07:27:44.840Z,13.94
2016-05-25T07:28:43.030Z,13.89
2016-05-25T07:29:43.064Z,13.94
2016-05-25T07:30:46.176Z,13.79
2016-05-25T07:31:42.539Z,13.7
2016-05-25T07:32:47.650Z,13.76
2016-05-25T07:33:42.544Z,13.7
2016-05-25T07:34:42.641Z,13.83
2016-05-25T07:35:42.643Z,13.93
2016-05-25T07:36:42.522Z,14.01
2016-05-25T07:37:46.133Z,14.04
2016-05-25T07:38:45.605Z,14.15
2016-05-25T07:39:42.357Z,14.26
2016-05-25T07:40:42.500Z,14.41
2016-05-25T07:41:45.268Z,14.33
2016-05-25T07:42:45.224Z,14.41
2016-05-25T07:43:42.196Z,14.53
2016-05-25T07:44:48.339Z,14.45
2016-05-25T07:45:42.357Z,14.56
2016-05-25T07:46:42.969Z,14.52
2016-05-25T07:47:41.957Z,14.58
2016-05-25T07:48:47.912Z,14.51
2016-05-25T07:49:41.869Z,14.44
2016-05-25T07:50:41.824Z,14.4
2016-05-25T07:51:44.765Z,14.52
2016-05-25T07:52:41.751Z,14.49
2016-05-25T07:53:50.676Z,14.61
2016-05-25T07:54:42.023Z,14.62
2016-05-25T07:55:41.963Z,14.61
2016-05-25T07:56:47.418Z,14.71
2016-05-25T07:57:44.514Z,14.73
2016-05-25T07:58:43.206Z,14.78
2016-05-25T07:59:41.426Z,14.62
2016-05-25T08:00:41.335Z,14.63
2016-05-25T08:01:44.853Z,14.62
2016-05-25T08:02:41.262Z,14.48
2016-05-25T08:03:47.656Z,14.41
2016-05-25T08:04:41.331Z,14.44
2016-05-25T08:05:41.099Z,14.41
2016-05-25T08:06:40.883Z,14.38
2016-05-25T08:07:41.011Z,14.43
2016-05-25T08:08:40.935Z,14.53
2016-05-25T08:09:44.000Z,14.55
2016-05-25T08:10:43.878Z,14.63
2016-05-25T08:11:40.819Z,14.66
2016-05-25T08:12:43.836Z,14.63
2016-05-25T08:13:43.807Z,14.7
2016-05-25T08:14:40.873Z,14.63
2016-05-25T08:15:44.282Z,14.62
2016-05-25T08:16:46.597Z,14.58
2016-05-25T08:17:40.507Z,14.49
2016-05-25T08:18:40.462Z,14.34
2016-05-25T08:19:43.465Z,14.34
2016-05-25T08:20:43.374Z,14.4
2016-05-25T08:21:40.313Z,14.25
2016-05-25T08:22:43.301Z,14.28
2016-05-25T08:23:40.835Z,14.31
2016-05-25T08:24:40.384Z,14.36
2016-05-25T08:25:40.356Z,14.33
2016-05-25T08:26:43.342Z,14.36
2016-05-25T08:27:39.892Z,14.26
2016-05-25T08:28:42.723Z,14.4
2016-05-25T08:29:39.929Z,14.34
2016-05-25T08:31:01.166Z,14.4
2016-05-25T08:31:40.200Z,14.36
2016-05-25T08:32:42.797Z,14.49
2016-05-25T08:33:43.659Z,14.56
2016-05-25T08:34:39.708Z,14.71
2016-05-25T08:35:39.508Z,14.68
2016-05-25T08:36:48.463Z,14.63
2016-05-25T08:37:45.264Z,14.66
2016-05-25T08:38:45.359Z,14.67
2016-05-25T08:39:45.472Z,14.68
2016-05-25T08:40:39.443Z,14.63
2016-05-25T08:41:39.555Z,14.78
2016-05-25T08:42:42.308Z,14.77
2016-05-25T08:43:42.357Z,14.68
2016-05-25T08:44:42.704Z,14.79
2016-05-25T08:45:39.472Z,14.86
2016-05-25T08:46:39.349Z,14.97
2016-05-25T08:47:39.071Z,14.96
2016-05-25T08:48:42.449Z,14.99
2016-05-25T08:49:38.982Z,15
2016-05-25T08:50:41.938Z,14.93
2016-05-25T08:51:38.879Z,15.04
2016-05-25T08:52:38.804Z,15.04
2016-05-25T08:53:39.118Z,15.05
2016-05-25T08:54:38.574Z,15.04
2016-05-25T08:55:44.718Z,14.96
2016-05-25T08:56:47.673Z,15.04
2016-05-25T08:57:42.004Z,15.07
2016-05-25T08:58:41.757Z,15.18
2016-05-25T08:59:38.495Z,15.19
2016-05-25T09:00:38.465Z,15.22
2016-05-25T09:01:39.515Z,15.14
2016-05-25T09:02:38.659Z,15.15
2016-05-25T09:03:38.317Z,15.23
2016-05-25T09:04:41.288Z,15.18
2016-05-25T09:05:41.104Z,15.12
2016-05-25T09:06:38.153Z,15.12
2016-05-25T09:07:38.172Z,15.1
2016-05-25T09:08:38.065Z,15.12
2016-05-25T09:09:41.021Z,15.18
2016-05-25T09:10:40.977Z,15.3
2016-05-25T09:11:38.073Z,15.36
2016-05-25T09:12:38.373Z,15.41
2016-05-25T09:13:37.828Z,15.33
2016-05-25T09:14:37.628Z,15.44
2016-05-25T09:15:37.584Z,15.39
2016-05-25T09:16:40.681Z,15.32
2016-05-25T09:17:40.401Z,15.5
2016-05-25T09:18:37.561Z,15.26
2016-05-25T09:19:43.594Z,15.41
2016-05-25T09:20:37.472Z,15.41
2016-05-25T09:21:37.444Z,15.43
2016-05-25T09:22:40.244Z,15.44
2016-05-25T09:23:40.434Z,15.48
2016-05-25T09:24:37.343Z,15.5
2016-05-25T09:25:37.110Z,15.55
2016-05-25T09:26:37.285Z,15.55
2016-05-25T09:27:37.022Z,15.54
2016-05-25T09:28:37.150Z,15.57
2016-05-25T09:29:37.090Z,15.54
2016-05-25T09:30:40.015Z,15.66
2016-05-25T09:31:37.034Z,15.65
2016-05-25T09:32:36.989Z,15.7
2016-05-25T09:33:36.867Z,15.72
2016-05-25T09:34:37.104Z,15.78
2016-05-25T09:35:37.169Z,15.96
2016-05-25T09:36:36.828Z,15.99
2016-05-25T09:37:36.877Z,16.08
2016-05-25T09:38:37.037Z,16.03
2016-05-25T09:39:36.586Z,16.08
2016-05-25T09:40:36.385Z,15.85
2016-05-25T09:41:36.498Z,15.76
2016-05-25T09:42:36.314Z,15.69
2016-05-25T09:43:36.441Z,15.65
2016-05-25T09:44:36.380Z,15.57
2016-05-25T09:45:36.336Z,15.51
2016-05-25T09:46:36.277Z,15.5
2016-05-25T09:47:42.280Z,15.5
2016-05-25T09:48:36.172Z,15.44
2016-05-25T09:49:36.113Z,15.45
2016-05-25T09:50:36.460Z,15.44
2016-05-25T09:51:36.212Z,15.41
2016-05-25T09:52:35.980Z,15.45
2016-05-25T09:53:36.343Z,15.41
2016-05-25T09:54:35.860Z,15.37
2016-05-25T09:55:38.848Z,15.41
2016-05-25T09:56:35.772Z,15.54
2016-05-25T09:57:38.932Z,15.57
2016-05-25T09:58:35.684Z,15.69
2016-05-25T09:59:35.623Z,15.81
2016-05-25T10:00:35.814Z,15.8
2016-05-25T10:02:41.398Z,15.98
2016-05-25T10:03:38.494Z,16.05
2016-05-25T10:04:35.262Z,16.09
2016-05-25T10:05:38.359Z,16.02
2016-05-25T10:06:35.330Z,16.02
2016-05-25T10:07:35.270Z,16.03
2016-05-25T10:08:39.039Z,16.08
2016-05-25T10:09:35.167Z,16.18
2016-05-25T10:10:38.185Z,16.24
2016-05-25T10:11:34.922Z,16.25
2016-05-25T10:12:35.050Z,16.25
2016-05-25T10:13:36.833Z,16.34
2016-05-25T10:14:34.930Z,16.41
2016-05-25T10:15:34.870Z,16.44
2016-05-25T10:16:35.030Z,16.59
2016-05-25T10:17:35.017Z,16.62
2016-05-25T10:18:34.769Z,16.68
2016-05-25T10:19:37.709Z,16.69
2016-05-25T10:20:37.680Z,16.58
2016-05-25T10:21:34.605Z,16.59
2016-05-25T10:22:37.546Z,16.55
2016-05-25T10:23:34.516Z,16.57
2016-05-25T10:24:34.474Z,16.54
2016-05-25T10:25:34.491Z,16.47
2016-05-25T10:26:34.384Z,16.51
2016-05-25T10:27:34.607Z,16.69
2016-05-25T10:28:34.265Z,16.76
2016-05-25T10:29:34.439Z,16.79
2016-05-25T10:30:34.379Z,16.79
2016-05-25T10:31:34.132Z,16.89
2016-05-25T10:32:37.588Z,17.02
2016-05-25T10:33:37.293Z,17.05
2016-05-25T10:34:34.000Z,17.01
2016-05-25T10:35:37.346Z,17.05
2016-05-25T10:36:33.911Z,17.01
2016-05-25T10:37:34.070Z,17.05
2016-05-25T10:38:33.854Z,16.91
2016-05-25T10:39:33.763Z,16.83
2016-05-25T10:40:36.703Z,16.74
2016-05-25T10:41:33.659Z,16.64
2016-05-25T10:42:36.631Z,16.72
2016-05-25T10:43:36.586Z,16.79
2016-05-25T10:44:33.619Z,16.94
2016-05-25T10:45:33.700Z,17.1
2016-05-25T10:46:33.547Z,17.19
2016-05-25T10:47:33.410Z,17.3
2016-05-25T10:48:33.381Z,17.39
2016-05-25T10:49:33.290Z,17.52
2016-05-25T10:50:36.683Z,17.6
2016-05-25T10:51:33.217Z,17.75
2016-05-25T10:52:33.174Z,17.68
2016-05-25T10:53:33.332Z,17.57
2016-05-25T10:54:33.054Z,17.5
2016-05-25T10:55:35.885Z,17.49
2016-05-25T10:56:33.168Z,17.53
2016-05-25T10:57:35.937Z,17.63
2016-05-25T10:58:32.923Z,17.66
2016-05-25T10:59:36.035Z,17.76
2016-05-25T11:00:32.773Z,17.76
2016-05-25T11:01:32.806Z,17.63
2016-05-25T11:02:32.951Z,17.54
2016-05-25T11:03:35.718Z,17.37
2016-05-25T11:04:32.596Z,17.35
2016-05-25T11:05:35.568Z,17.35
2016-05-25T11:06:35.695Z,17.2
2016-05-25T11:07:32.448Z,17.07
2016-05-25T11:08:32.481Z,16.98
2016-05-25T11:09:32.375Z,16.98
2016-05-25T11:10:32.331Z,17.07
2016-05-25T11:11:32.256Z,17.19
2016-05-25T11:12:32.227Z,17.24
2016-05-25T11:13:32.213Z,17.3
2016-05-25T11:14:32.028Z,17.3
2016-05-25T11:15:32.188Z,17.3
2016-05-25T11:16:31.925Z,17.32
2016-05-25T11:17:32.459Z,17.46
2016-05-25T11:18:31.994Z,17.63
2016-05-25T11:19:31.996Z,17.72
2016-05-25T11:20:31.716Z,17.88
2016-05-25T11:21:31.595Z,17.84
2016-05-25T11:22:34.800Z,17.75
2016-05-25T11:23:31.741Z,17.6
2016-05-25T11:24:31.868Z,17.68
2016-05-25T11:25:31.700Z,17.79
2016-05-25T11:26:34.452Z,17.8
2016-05-25T11:27:31.423Z,17.87
2016-05-25T11:28:31.551Z,17.8
2016-05-25T11:29:31.460Z,17.9
2016-05-25T11:30:31.415Z,17.97
2016-05-25T11:31:31.606Z,17.98
2016-05-25T11:32:31.687Z,18.06
2016-05-25T11:33:31.518Z,18.12
2016-05-25T11:34:31.724Z,18.09
2016-05-25T11:35:31.023Z,18.12
2016-05-25T11:36:31.025Z,18.09
2016-05-25T11:37:34.107Z,18.19
2016-05-25T11:38:31.093Z,18.28
2016-05-25T11:39:31.440Z,18.46
2016-05-25T11:40:31.068Z,18.63
2016-05-25T11:41:33.914Z,18.68
2016-05-25T11:42:34.089Z,18.45
2016-05-25T11:43:31.028Z,18.31
2016-05-25T11:44:34.469Z,18.23
2016-05-25T11:45:33.722Z,18.28
2016-05-25T11:46:33.725Z,18.24
2016-05-25T11:47:34.556Z,18.33
2016-05-25T11:48:34.167Z,18.37
2016-05-25T11:49:33.655Z,18.36
2016-05-25T11:50:33.735Z,18.27
2016-05-25T11:51:33.472Z,18.28
2016-05-25T11:52:33.256Z,18.28
2016-05-25T11:53:30.383Z,18.16
2016-05-25T11:54:33.496Z,18.13
2016-05-25T11:55:33.483Z,18.08
2016-05-25T11:56:33.063Z,18
2016-05-25T11:57:30.379Z,17.95
2016-05-25T11:58:30.007Z,18.06
2016-05-25T11:59:29.979Z,18.18
2016-05-25T12:00:30.449Z,18.33
2016-05-25T12:01:36.218Z,18.24
2016-05-25T12:02:29.971Z,18.31
2016-05-25T12:03:33.161Z,18.3
2016-05-25T12:04:35.710Z,18.34
2016-05-25T12:05:29.835Z,18.36
2016-05-25T12:06:33.168Z,18.33
2016-05-25T12:07:35.812Z,18.37
2016-05-25T12:08:29.671Z,18.27
2016-05-25T12:09:32.474Z,18.49
2016-05-25T12:10:29.787Z,18.43
2016-05-25T12:11:29.570Z,18.61
2016-05-25T12:12:29.697Z,18.7
2016-05-25T12:13:29.404Z,18.64
2016-05-25T12:14:29.531Z,18.63
2016-05-25T12:15:29.456Z,18.61
2016-05-25T12:16:29.396Z,18.66
2016-05-25T12:17:29.367Z,18.67
2016-05-25T12:18:29.730Z,18.67
2016-05-25T12:19:29.576Z,18.6
2016-05-25T12:20:29.064Z,18.64
2016-05-25T12:21:28.831Z,18.7
2016-05-25T12:22:28.881Z,18.63
2016-05-25T12:23:29.212Z,18.66
2016-05-25T12:24:31.983Z,18.68
2016-05-25T12:25:28.889Z,18.74
2016-05-25T12:26:28.923Z,18.81
2016-05-25T12:27:29.004Z,18.81
2016-05-25T12:28:28.632Z,18.7
2016-05-25T12:29:34.934Z,18.66
2016-05-25T12:30:28.730Z,18.63
2016-05-25T12:31:34.845Z,18.79
2016-05-25T12:32:28.814Z,18.94
2016-05-25T12:33:28.895Z,19.11
2016-05-25T12:34:28.538Z,19.34
2016-05-25T12:35:34.528Z,19.26
2016-05-25T12:36:31.437Z,19.17
2016-05-25T12:37:31.581Z,19.12
2016-05-25T12:38:28.346Z,19.16
2016-05-25T12:39:31.302Z,19.2
2016-05-25T12:40:31.464Z,19.3
2016-05-25T12:41:28.448Z,19.38
2016-05-25T12:42:28.387Z,19.42
2016-05-25T12:43:31.565Z,19.39
2016-05-25T12:44:31.065Z,19.27
2016-05-25T12:45:28.021Z,19.11
2016-05-25T12:46:28.070Z,18.92
2016-05-25T12:47:28.230Z,18.85
2016-05-25T12:48:28.139Z,18.81
2016-05-25T12:49:30.986Z,18.82
2016-05-25T12:50:27.848Z,18.98
2016-05-25T12:51:27.755Z,18.97
2016-05-25T12:52:28.399Z,19.12
2016-05-25T12:53:27.683Z,19.19
2016-05-25T12:54:33.627Z,19.17
2016-05-25T12:55:27.408Z,19.09